sensor_id;sensor_type;location;lat;lon;timestamp;pressure;altitude;pressure_sealevel;temperature;humidity
71716;BME280;59568;52.128;5.434;2023-12-04T00:01:16;101466.19;;;0.08;100.00
71716;BME280;59568;52.128;5.434;2023-12-04T00:03:44;101467.00;;;0.08;100.00
71716;BME280;59568;52.128;5.434;2023-12-04T00:06:12;101464.44;;;0.08;100.00
71716;BME280;59568;52.128;5.434;2023-12-04T00:08:39;101468.38;;;0.11;100.00
71716;BME280;59568;52.128;5.434;2023-12-04T00:11:06;101457.69;;;0.14;100.00
71716;BME280;59568;52.128;5.434;2023-12-04T00:13:33;101463.63;;;0.14;100.00
71716;BME280;59568;52.128;5.434;2023-12-04T00:16:01;101452.56;;;0.14;100.00
71716;BME280;59568;52.128;5.434;2023-12-04T00:18:29;101446.63;;;0.13;100.00
71716;BME280;59568;52.128;5.434;2023-12-04T00:20:56;101446.44;;;0.15;100.00
71716;BME280;59568;52.128;5.434;2023-12-04T00:23:23;101439.50;;;0.15;100.00
71716;BME280;59568;52.128;5.434;2023-12-04T00:25:51;101447.81;;;0.17;100.00
71716;BME280;59568;52.128;5.434;2023-12-04T00:28:18;101443.44;;;0.18;100.00
71716;BME280;59568;52.128;5.434;2023-12-04T00:30:45;101438.31;;;0.18;100.00
71716;BME280;59568;52.128;5.434;2023-12-04T00:33:12;101434.97;;;0.17;100.00
71716;BME280;59568;52.128;5.434;2023-12-04T00:35:39;101431.59;;;0.17;100.00
71716;BME280;59568;52.128;5.434;2023-12-04T00:38:06;101433.16;;;0.18;100.00
71716;BME280;59568;52.128;5.434;2023-12-04T00:40:33;101422.88;;;0.18;100.00
71716;BME280;59568;52.128;5.434;2023-12-04T00:43:00;101415.41;;;0.16;100.00
71716;BME280;59568;52.128;5.434;2023-12-04T00:45:27;101414.41;;;0.17;100.00
71716;BME280;59568;52.128;5.434;2023-12-04T00:47:54;101418.75;;;0.17;100.00
71716;BME280;59568;52.128;5.434;2023-12-04T00:50:21;101418.75;;;0.17;100.00
71716;BME280;59568;52.128;5.434;2023-12-04T00:52:48;101421.50;;;0.15;100.00
71716;BME280;59568;52.128;5.434;2023-12-04T00:55:15;101410.25;;;0.16;100.00
71716;BME280;59568;52.128;5.434;2023-12-04T00:57:42;101403.53;;;0.15;100.00
71716;BME280;59568;52.128;5.434;2023-12-04T01:00:09;101411.81;;;0.17;100.00
71716;BME280;59568;52.128;5.434;2023-12-04T01:02:37;101408.28;;;0.18;100.00
71716;BME280;59568;52.128;5.434;2023-12-04T01:05:04;101410.25;;;0.16;100.00
71716;BME280;59568;52.128;5.434;2023-12-04T01:07:31;101397.59;;;0.15;100.00
71716;BME280;59568;52.128;5.434;2023-12-04T01:09:58;101404.91;;;0.18;100.00
71716;BME280;59568;52.128;5.434;2023-12-04T01:12:25;101404.91;;;0.18;100.00
71716;BME280;59568;52.128;5.434;2023-12-04T01:14:51;101396.78;;;0.21;100.00
71716;BME280;59568;52.128;5.434;2023-12-04T01:17:18;101401.94;;;0.21;100.00
71716;BME280;59568;52.128;5.434;2023-12-04T01:19:45;101395.78;;;0.22;100.00
71716;BME280;59568;52.128;5.434;2023-12-04T01:22:12;101393.44;;;0.21;100.00
71716;BME280;59568;52.128;5.434;2023-12-04T01:24:40;101386.72;;;0.19;100.00
71716;BME280;59568;52.128;5.434;2023-12-04T01:27:07;101381.38;;;0.21;100.00
71716;BME280;59568;52.128;5.434;2023-12-04T01:29:34;101379.78;;;0.20;100.00
71716;BME280;59568;52.128;5.434;2023-12-04T01:32:01;101373.84;;;0.19;100.00
71716;BME280;59568;52.128;5.434;2023-12-04T01:34:28;101375.44;;;0.21;100.00
71716;BME280;59568;52.128;5.434;2023-12-04T01:36:55;101376.22;;;0.21;100.00
71716;BME280;59568;52.128;5.434;2023-12-04T01:39:22;101371.09;;;0.21;100.00
71716;BME280;59568;52.128;5.434;2023-12-04T01:41:49;101373.84;;;0.19;100.00
71716;BME280;59568;52.128;5.434;2023-12-04T01:44:16;101370.50;;;0.19;100.00
71716;BME280;59568;52.128;5.434;2023-12-04T01:46:44;101361.44;;;0.16;100.00
71716;BME280;59568;52.128;5.434;2023-12-04T01:49:11;101360.84;;;0.14;100.00
71716;BME280;59568;52.128;5.434;2023-12-04T01:51:39;101370.31;;;0.14;100.00
71716;BME280;59568;52.128;5.434;2023-12-04T01:54:06;101363.63;;;0.13;100.00
71716;BME280;59568;52.128;5.434;2023-12-04T01:56:34;101354.13;;;0.13;100.00
71716;BME280;59568;52.128;5.434;2023-12-04T01:59:03;101356.88;;;0.12;100.00
71716;BME280;59568;52.128;5.434;2023-12-04T02:01:30;101357.09;;;0.10;100.00
71716;BME280;59568;52.128;5.434;2023-12-04T02:03:59;101347.81;;;0.09;100.00
71716;BME280;59568;52.128;5.434;2023-12-04T02:06:28;101339.31;;;0.09;100.00
71716;BME280;59568;52.128;5.434;2023-12-04T02:08:56;101353.72;;;0.10;100.00
71716;BME280;59568;52.128;5.434;2023-12-04T02:11:23;101345.44;;;0.08;100.00
71716;BME280;59568;52.128;5.434;2023-12-04T02:13:51;101329.22;;;0.07;100.00
71716;BME280;59568;52.128;5.434;2023-12-04T02:16:19;101337.94;;;0.06;100.00
71716;BME280;59568;52.128;5.434;2023-12-04T02:18:48;101324.28;;;0.06;100.00
71716;BME280;59568;52.128;5.434;2023-12-04T02:21:16;101327.66;;;0.06;100.00
71716;BME280;59568;52.128;5.434;2023-12-04T02:23:43;101323.50;;;0.05;100.00
71716;BME280;59568;52.128;5.434;2023-12-04T02:26:19;101324.50;;;0.04;100.00
71716;BME280;59568;52.128;5.434;2023-12-04T02:28:54;101332.81;;;0.06;100.00
71716;BME280;59568;52.128;5.434;2023-12-04T02:31:23;101324.88;;;0.08;100.00
71716;BME280;59568;52.128;5.434;2023-12-04T02:33:55;101322.09;;;0.09;100.00
71716;BME280;59568;52.128;5.434;2023-12-04T02:36:24;101319.34;;;0.11;100.00
71716;BME280;59568;52.128;5.434;2023-12-04T02:38:53;101310.03;;;0.10;100.00
71716;BME280;59568;52.128;5.434;2023-12-04T02:41:20;101306.28;;;0.12;100.00
71716;BME280;59568;52.128;5.434;2023-12-04T02:43:47;101300.16;;;0.13;100.00
71716;BME280;59568;52.128;5.434;2023-12-04T02:46:14;101295.22;;;0.12;100.00
71716;BME280;59568;52.128;5.434;2023-12-04T02:48:41;101284.94;;;0.12;100.00
71716;BME280;59568;52.128;5.434;2023-12-04T02:51:09;101285.34;;;0.09;100.00
71716;BME280;59568;52.128;5.434;2023-12-04T02:53:36;101284.16;;;0.11;100.00
71716;BME280;59568;52.128;5.434;2023-12-04T02:56:03;101284.94;;;0.12;100.00
71716;BME280;59568;52.128;5.434;2023-12-04T02:58:31;101274.66;;;0.12;100.00
71716;BME280;59568;52.128;5.434;2023-12-04T03:01:00;101276.63;;;0.10;100.00
71716;BME280;59568;52.128;5.434;2023-12-04T03:03:27;101266.34;;;0.10;100.00
71716;BME280;59568;52.128;5.434;2023-12-04T03:05:55;101264.78;;;0.09;100.00
71716;BME280;59568;52.128;5.434;2023-12-04T03:08:22;101271.72;;;0.08;100.00
71716;BME280;59568;52.128;5.434;2023-12-04T03:10:49;101268.34;;;0.08;100.00
71716;BME280;59568;52.128;5.434;2023-12-04T03:13:16;101265.56;;;0.09;100.00
71716;BME280;59568;52.128;5.434;2023-12-04T03:15:43;101248.59;;;0.08;100.00
71716;BME280;59568;52.128;5.434;2023-12-04T03:18:10;101251.94;;;0.09;100.00
71716;BME280;59568;52.128;5.434;2023-12-04T03:20:38;101245.00;;;0.09;100.00
71716;BME280;59568;52.128;5.434;2023-12-04T03:23:05;101247.00;;;0.07;100.00
71716;BME280;59568;52.128;5.434;2023-12-04T03:25:32;101245.22;;;0.08;100.00
71716;BME280;59568;52.128;5.434;2023-12-04T03:27:59;101234.94;;;0.08;100.00
71716;BME280;59568;52.128;5.434;2023-12-04T03:30:27;101234.75;;;0.09;100.00
71716;BME280;59568;52.128;5.434;2023-12-04T03:32:54;101230.03;;;0.06;100.00
71716;BME280;59568;52.128;5.434;2023-12-04T03:35:21;101230.81;;;0.07;100.00
71716;BME280;59568;52.128;5.434;2023-12-04T03:37:48;101230.03;;;0.06;100.00
71716;BME280;59568;52.128;5.434;2023-12-04T03:40:16;101224.06;;;0.06;100.00
71716;BME280;59568;52.128;5.434;2023-12-04T03:42:43;101214.81;;;0.05;100.00
71716;BME280;59568;52.128;5.434;2023-12-04T03:45:11;101211.66;;;0.03;100.00
71716;BME280;59568;52.128;5.434;2023-12-04T03:47:38;101216.00;;;0.02;100.00
71716;BME280;59568;52.128;5.434;2023-12-04T03:50:05;101208.50;;;0.01;100.00
71716;BME280;59568;52.128;5.434;2023-12-04T03:52:32;101194.06;;;-0.01;100.00
71716;BME280;59568;52.128;5.434;2023-12-04T03:54:59;101201.00;;;-0.01;100.00
71716;BME280;59568;52.128;5.434;2023-12-04T03:57:26;101196.84;;;-0.02;100.00
71716;BME280;59568;52.128;5.434;2023-12-04T03:59:53;101197.66;;;-0.02;100.00
71716;BME280;59568;52.128;5.434;2023-12-04T04:02:20;101190.91;;;-0.03;100.00
71716;BME280;59568;52.128;5.434;2023-12-04T04:04:47;101191.94;;;-0.04;100.00
71716;BME280;59568;52.128;5.434;2023-12-04T04:07:16;101181.06;;;-0.06;100.00
71716;BME280;59568;52.128;5.434;2023-12-04T04:09:44;101182.81;;;-0.06;100.00
71716;BME280;59568;52.128;5.434;2023-12-04T04:12:11;101185.41;;;-0.06;100.00
71716;BME280;59568;52.128;5.434;2023-12-04T04:14:38;101171.97;;;-0.08;100.00
71716;BME280;59568;52.128;5.434;2023-12-04T04:17:05;101176.31;;;-0.09;100.00
71716;BME280;59568;52.128;5.434;2023-12-04T04:19:32;101175.75;;;-0.11;100.00
71716;BME280;59568;52.128;5.434;2023-12-04T04:21:59;101168.03;;;-0.11;100.00
71716;BME280;59568;52.128;5.434;2023-12-04T04:24:26;101162.31;;;-0.13;100.00
71716;BME280;59568;52.128;5.434;2023-12-04T04:26:53;101158.78;;;-0.12;100.00
71716;BME280;59568;52.128;5.434;2023-12-04T04:29:20;101161.34;;;-0.12;100.00
71716;BME280;59568;52.128;5.434;2023-12-04T04:31:47;101159.34;;;-0.10;100.00
71716;BME280;59568;52.128;5.434;2023-12-04T04:34:14;101155.19;;;-0.11;100.00
71716;BME280;59568;52.128;5.434;2023-12-04T04:36:43;101149.06;;;-0.10;100.00
71716;BME280;59568;52.128;5.434;2023-12-04T04:39:12;101153.22;;;-0.09;100.00
71716;BME280;59568;52.128;5.434;2023-12-04T04:41:40;101155.78;;;-0.09;100.00
71716;BME280;59568;52.128;5.434;2023-12-04T04:44:07;101147.50;;;-0.11;100.00
71716;BME280;59568;52.128;5.434;2023-12-04T04:46:34;101150.06;;;-0.11;100.00
71716;BME280;59568;52.128;5.434;2023-12-04T04:49:00;101141.94;;;-0.08;100.00
71716;BME280;59568;52.128;5.434;2023-12-04T04:51:28;101149.06;;;-0.10;100.00
71716;BME280;59568;52.128;5.434;2023-12-04T04:53:58;101147.09;;;-0.08;100.00
71716;BME280;59568;52.128;5.434;2023-12-04T04:56:25;101144.53;;;-0.08;100.00
71716;BME280;59568;52.128;5.434;2023-12-04T04:58:53;101137.59;;;-0.07;100.00
71716;BME280;59568;52.128;5.434;2023-12-04T05:01:20;101145.31;;;-0.07;100.00
71716;BME280;59568;52.128;5.434;2023-12-04T05:03:47;101138.38;;;-0.07;100.00
71716;BME280;59568;52.128;5.434;2023-12-04T05:06:14;101136.81;;;-0.08;100.00
71716;BME280;59568;52.128;5.434;2023-12-04T05:08:41;101135.81;;;-0.07;100.00
71716;BME280;59568;52.128;5.434;2023-12-04T05:11:08;101138.38;;;-0.07;100.00
71716;BME280;59568;52.128;5.434;2023-12-04T05:13:35;101135.03;;;-0.07;100.00
71716;BME280;59568;52.128;5.434;2023-12-04T05:16:02;101131.69;;;-0.08;100.00
71716;BME280;59568;52.128;5.434;2023-12-04T05:18:29;101125.53;;;-0.07;100.00
71716;BME280;59568;52.128;5.434;2023-12-04T05:20:56;101125.53;;;-0.07;100.00
71716;BME280;59568;52.128;5.434;2023-12-04T05:23:23;101115.47;;;-0.08;100.00
71716;BME280;59568;52.128;5.434;2023-12-04T05:25:50;101114.69;;;-0.09;100.00
71716;BME280;59568;52.128;5.434;2023-12-04T05:28:17;101121.41;;;-0.08;100.00
71716;BME280;59568;52.128;5.434;2023-12-04T05:30:45;101119.81;;;-0.09;100.00
71716;BME280;59568;52.128;5.434;2023-12-04T05:33:12;101118.84;;;-0.08;100.00
71716;BME280;59568;52.128;5.434;2023-12-04T05:35:39;101110.13;;;-0.07;100.00
71716;BME280;59568;52.128;5.434;2023-12-04T05:38:06;101103.63;;;-0.09;100.00
71716;BME280;59568;52.128;5.434;2023-12-04T05:40:35;101100.03;;;-0.08;100.00
71716;BME280;59568;52.128;5.434;2023-12-04T05:43:02;101094.13;;;-0.09;100.00
71716;BME280;59568;52.128;5.434;2023-12-04T05:45:29;101094.91;;;-0.08;100.00
71716;BME280;59568;52.128;5.434;2023-12-04T05:47:56;101083.84;;;-0.09;100.00
71716;BME280;59568;52.128;5.434;2023-12-04T05:50:23;101075.38;;;-0.09;100.00
71716;BME280;59568;52.128;5.434;2023-12-04T05:52:50;101082.06;;;-0.08;100.00
71716;BME280;59568;52.128;5.434;2023-12-04T05:55:17;101080.06;;;-0.06;100.00
71716;BME280;59568;52.128;5.434;2023-12-04T05:57:44;101081.84;;;-0.07;100.00
71716;BME280;59568;52.128;5.434;2023-12-04T06:00:12;101080.31;;;-0.08;100.00
71716;BME280;59568;52.128;5.434;2023-12-04T06:02:42;101075.75;;;-0.06;100.00
71716;BME280;59568;52.128;5.434;2023-12-04T06:05:10;101073.19;;;-0.06;100.00
71716;BME280;59568;52.128;5.434;2023-12-04T06:07:37;101079.88;;;-0.05;100.00
71716;BME280;59568;52.128;5.434;2023-12-04T06:10:05;101075.31;;;-0.03;100.00
71716;BME280;59568;52.128;5.434;2023-12-04T06:12:32;101066.03;;;-0.04;100.00
71716;BME280;59568;52.128;5.434;2023-12-04T06:15:00;101062.66;;;-0.04;100.00
71716;BME280;59568;52.128;5.434;2023-12-04T06:17:27;101068.63;;;-0.04;100.00
71716;BME280;59568;52.128;5.434;2023-12-04T06:19:54;101065.59;;;-0.01;100.00
71716;BME280;59568;52.128;5.434;2023-12-04T06:22:22;101060.47;;;-0.01;100.00
71716;BME280;59568;52.128;5.434;2023-12-04T06:24:49;101064.06;;;-0.02;100.00
71716;BME280;59568;52.128;5.434;2023-12-04T06:27:18;101073.91;;;0.02;100.00
71716;BME280;59568;52.128;5.434;2023-12-04T06:29:48;101072.34;;;0.01;100.00
71716;BME280;59568;52.128;5.434;2023-12-04T06:32:19;101063.63;;;0.02;100.00
71716;BME280;59568;52.128;5.434;2023-12-04T06:34:47;101060.28;;;0.01;100.00
71716;BME280;59568;52.128;5.434;2023-12-04T06:37:15;101054.94;;;0.03;100.00
71716;BME280;59568;52.128;5.434;2023-12-04T06:39:44;101047.44;;;0.01;100.00
71716;BME280;59568;52.128;5.434;2023-12-04T06:42:13;101045.63;;;0.02;100.00
71716;BME280;59568;52.128;5.434;2023-12-04T06:44:40;101049.00;;;0.02;100.00
71716;BME280;59568;52.128;5.434;2023-12-04T06:47:08;101034.78;;;-0.01;100.00
71716;BME280;59568;52.128;5.434;2023-12-04T06:49:35;101026.09;;;0.01;100.00
71716;BME280;59568;52.128;5.434;2023-12-04T06:52:03;101021.53;;;0.03;100.00
71716;BME280;59568;52.128;5.434;2023-12-04T06:54:30;101019.94;;;0.02;100.00
71716;BME280;59568;52.128;5.434;2023-12-04T06:56:57;101015.81;;;0.01;100.00
71716;BME280;59568;52.128;5.434;2023-12-04T06:59:25;101015.81;;;0.01;100.00
71716;BME280;59568;52.128;5.434;2023-12-04T07:01:52;101005.53;;;0.01;100.00
71716;BME280;59568;52.128;5.434;2023-12-04T07:04:19;101005.34;;;0.02;100.00
71716;BME280;59568;52.128;5.434;2023-12-04T07:06:49;101015.63;;;0.02;100.00
71716;BME280;59568;52.128;5.434;2023-12-04T07:09:16;101013.03;;;0.02;100.00
71716;BME280;59568;52.128;5.434;2023-12-04T07:11:47;101007.91;;;0.02;100.00
71716;BME280;59568;52.128;5.434;2023-12-04T07:14:14;101001.56;;;0.05;100.00
71716;BME280;59568;52.128;5.434;2023-12-04T07:16:42;100997.41;;;0.04;100.00
71716;BME280;59568;52.128;5.434;2023-12-04T07:19:10;100990.69;;;0.03;100.00
71716;BME280;59568;52.128;5.434;2023-12-04T07:21:38;100987.13;;;0.04;100.00
71716;BME280;59568;52.128;5.434;2023-12-04T07:24:06;100986.13;;;0.05;100.00
71716;BME280;59568;52.128;5.434;2023-12-04T07:26:34;100979.41;;;0.04;100.00
71716;BME280;59568;52.128;5.434;2023-12-04T07:29:02;100986.91;;;0.05;100.00
71716;BME280;59568;52.128;5.434;2023-12-04T07:31:30;100983.00;;;0.03;100.00
71716;BME280;59568;52.128;5.434;2023-12-04T07:33:57;100987.69;;;0.06;100.00
71716;BME280;59568;52.128;5.434;2023-12-04T07:36:28;100980.78;;;0.06;100.00
71716;BME280;59568;52.128;5.434;2023-12-04T07:38:55;100987.69;;;0.06;100.00
71716;BME280;59568;52.128;5.434;2023-12-04T07:41:22;100979.00;;;0.07;100.00
71716;BME280;59568;52.128;5.434;2023-12-04T07:43:49;100987.28;;;0.09;100.00
71716;BME280;59568;52.128;5.434;2023-12-04T07:46:16;100986.50;;;0.08;100.00
71716;BME280;59568;52.128;5.434;2023-12-04T07:48:43;100982.94;;;0.09;100.00
71716;BME280;59568;52.128;5.434;2023-12-04T07:51:11;100979.38;;;0.10;100.00
71716;BME280;59568;52.128;5.434;2023-12-04T07:53:38;100978.16;;;0.13;100.00
71716;BME280;59568;52.128;5.434;2023-12-04T07:56:05;100969.44;;;0.14;100.00
71716;BME280;59568;52.128;5.434;2023-12-04T07:58:32;100965.88;;;0.15;100.00
71716;BME280;59568;52.128;5.434;2023-12-04T08:00:59;100971.03;;;0.15;100.00
71716;BME280;59568;52.128;5.434;2023-12-04T08:03:27;100970.59;;;0.18;100.00
71716;BME280;59568;52.128;5.434;2023-12-04T08:05:54;100976.28;;;0.20;100.00
71716;BME280;59568;52.128;5.434;2023-12-04T08:08:21;100976.09;;;0.22;100.00
71716;BME280;59568;52.128;5.434;2023-12-04T08:10:48;100976.47;;;0.25;100.00
71716;BME280;59568;52.128;5.434;2023-12-04T08:13:15;100979.03;;;0.25;100.00
71716;BME280;59568;52.128;5.434;2023-12-04T08:15:43;100974.25;;;0.29;100.00
71716;BME280;59568;52.128;5.434;2023-12-04T08:18:11;100979.97;;;0.31;100.00
71716;BME280;59568;52.128;5.434;2023-12-04T08:20:38;100978.16;;;0.31;100.00
71716;BME280;59568;52.128;5.434;2023-12-04T08:23:07;100981.31;;;0.33;100.00
71716;BME280;59568;52.128;5.434;2023-12-04T08:25:35;100980.34;;;0.34;100.00
71716;BME280;59568;52.128;5.434;2023-12-04T08:28:06;100977.75;;;0.34;100.00
71716;BME280;59568;52.128;5.434;2023-12-04T08:30:33;100978.91;;;0.38;100.00
71716;BME280;59568;52.128;5.434;2023-12-04T08:33:00;100964.25;;;0.39;100.00
71716;BME280;59568;52.128;5.434;2023-12-04T08:35:27;100968.75;;;0.44;100.00
71716;BME280;59568;52.128;5.434;2023-12-04T08:37:54;100967.53;;;0.46;100.00
71716;BME280;59568;52.128;5.434;2023-12-04T08:40:21;100960.84;;;0.45;100.00
71716;BME280;59568;52.128;5.434;2023-12-04T08:42:49;100962.38;;;0.46;100.00
71716;BME280;59568;52.128;5.434;2023-12-04T08:45:17;100954.47;;;0.48;100.00
71716;BME280;59568;52.128;5.434;2023-12-04T08:47:45;100948.66;;;0.52;100.00
71716;BME280;59568;52.128;5.434;2023-12-04T08:50:13;100946.09;;;0.52;100.00
71716;BME280;59568;52.128;5.434;2023-12-04T08:52:40;100948.47;;;0.54;100.00
71716;BME280;59568;52.128;5.434;2023-12-04T08:55:09;100948.41;;;0.61;100.00
71716;BME280;59568;52.128;5.434;2023-12-04T08:57:37;100942.03;;;0.63;100.00
71716;BME280;59568;52.128;5.434;2023-12-04T09:00:05;100939.59;;;0.68;100.00
71716;BME280;59568;52.128;5.434;2023-12-04T09:02:32;100938.38;;;0.71;100.00
71716;BME280;59568;52.128;5.434;2023-12-04T09:04:59;100940.31;;;0.75;100.00
71716;BME280;59568;52.128;5.434;2023-12-04T09:07:27;100933.72;;;0.79;100.00
71716;BME280;59568;52.128;5.434;2023-12-04T09:09:57;100935.31;;;0.81;100.00
71716;BME280;59568;52.128;5.434;2023-12-04T09:12:24;100921.63;;;0.80;100.00
71716;BME280;59568;52.128;5.434;2023-12-04T09:14:53;100925.78;;;0.81;100.00
71716;BME280;59568;52.128;5.434;2023-12-04T09:17:20;100921.22;;;0.83;100.00
71716;BME280;59568;52.128;5.434;2023-12-04T09:19:49;100928.28;;;0.88;100.00
71716;BME280;59568;52.128;5.434;2023-12-04T09:22:16;100918.34;;;0.91;100.00
71716;BME280;59568;52.128;5.434;2023-12-04T09:24:47;100914.53;;;0.94;100.00
71716;BME280;59568;52.128;5.434;2023-12-04T09:27:14;100925.19;;;0.97;100.00
71716;BME280;59568;52.128;5.434;2023-12-04T09:29:41;100918.59;;;1.02;100.00
71716;BME280;59568;52.128;5.434;2023-12-04T09:32:09;100910.22;;;1.06;100.00
71716;BME280;59568;52.128;5.434;2023-12-04T09:34:38;100921.19;;;1.13;100.00
71716;BME280;59568;52.128;5.434;2023-12-04T09:37:05;100919.97;;;1.16;100.00
71716;BME280;59568;52.128;5.434;2023-12-04T09:39:37;100918.75;;;1.18;100.00
71716;BME280;59568;52.128;5.434;2023-12-04T09:42:05;100915.94;;;1.20;100.00
71716;BME280;59568;52.128;5.434;2023-12-04T09:44:34;100913.59;;;1.18;100.00
71716;BME280;59568;52.128;5.434;2023-12-04T09:47:01;100920.44;;;1.25;100.00
71716;BME280;59568;52.128;5.434;2023-12-04T09:49:30;100917.84;;;1.25;100.00
71716;BME280;59568;52.128;5.434;2023-12-04T09:52:01;100908.38;;;1.25;100.00
71716;BME280;59568;52.128;5.434;2023-12-04T09:54:29;100902.41;;;1.25;100.00
71716;BME280;59568;52.128;5.434;2023-12-04T09:56:57;100906.13;;;1.29;100.00
71716;BME280;59568;52.128;5.434;2023-12-04T09:59:25;100910.63;;;1.33;100.00
71716;BME280;59568;52.128;5.434;2023-12-04T10:01:54;100901.09;;;1.34;100.00
71716;BME280;59568;52.128;5.434;2023-12-04T10:04:21;100902.44;;;1.36;100.00
71716;BME280;59568;52.128;5.434;2023-12-04T10:06:52;100905.34;;;1.40;100.00
71716;BME280;59568;52.128;5.434;2023-12-04T10:09:19;100891.25;;;1.43;100.00
71716;BME280;59568;52.128;5.434;2023-12-04T10:11:52;100891.81;;;1.45;100.00
71716;BME280;59568;52.128;5.434;2023-12-04T10:14:20;100886.00;;;1.49;100.00
71716;BME280;59568;52.128;5.434;2023-12-04T10:16:48;100877.81;;;1.52;100.00
71716;BME280;59568;52.128;5.434;2023-12-04T10:19:27;100879.72;;;1.57;100.00
71716;BME280;59568;52.128;5.434;2023-12-04T10:21:58;100868.31;;;1.65;100.00
71716;BME280;59568;52.128;5.434;2023-12-04T10:24:32;100864.25;;;1.69;100.00
71716;BME280;59568;52.128;5.434;2023-12-04T10:27:08;100871.34;;;1.73;100.00
71716;BME280;59568;52.128;5.434;2023-12-04T10:29:42;100864.94;;;1.76;100.00
71716;BME280;59568;52.128;5.434;2023-12-04T10:32:10;100855.19;;;1.78;100.00
71716;BME280;59568;52.128;5.434;2023-12-04T10:34:37;100851.94;;;1.83;100.00
71716;BME280;59568;52.128;5.434;2023-12-04T10:37:05;100850.25;;;1.88;100.00
71716;BME280;59568;52.128;5.434;2023-12-04T10:39:46;100842.31;;;1.90;100.00
71716;BME280;59568;52.128;5.434;2023-12-04T10:42:27;100847.78;;;1.93;100.00
71716;BME280;59568;52.128;5.434;2023-12-04T10:44:55;100839.81;;;1.95;100.00
71716;BME280;59568;52.128;5.434;2023-12-04T10:47:24;100835.00;;;1.98;100.00
71716;BME280;59568;52.128;5.434;2023-12-04T10:49:52;100832.97;;;2.00;100.00
71716;BME280;59568;52.128;5.434;2023-12-04T10:52:20;100831.41;;;1.99;100.00
71716;BME280;59568;52.128;5.434;2023-12-04T10:54:48;100821.66;;;2.02;100.00
71716;BME280;59568;52.128;5.434;2023-12-04T10:57:27;100821.19;;;2.05;100.00
71716;BME280;59568;52.128;5.434;2023-12-04T11:00:01;100816.72;;;2.00;100.00
71716;BME280;59568;52.128;5.434;2023-12-04T11:02:33;100811.91;;;2.04;100.00
71716;BME280;59568;52.128;5.434;2023-12-04T11:05:05;100799.81;;;2.04;100.00
71716;BME280;59568;52.128;5.434;2023-12-04T11:07:41;100807.31;;;2.06;100.00
71716;BME280;59568;52.128;5.434;2023-12-04T11:10:31;100798.78;;;2.05;100.00
71716;BME280;59568;52.128;5.434;2023-12-04T11:13:08;100786.13;;;2.04;100.00
71716;BME280;59568;52.128;5.434;2023-12-04T11:15:40;100785.66;;;2.07;100.00
71716;BME280;59568;52.128;5.434;2023-12-04T11:18:12;100783.09;;;2.07;100.00
71716;BME280;59568;52.128;5.434;2023-12-04T11:20:46;100775.81;;;2.04;100.00
71716;BME280;59568;52.128;5.434;2023-12-04T11:23:15;100773.47;;;2.02;100.00
71716;BME280;59568;52.128;5.434;2023-12-04T11:25:44;100762.38;;;2.02;100.00
71716;BME280;59568;52.128;5.434;2023-12-04T11:28:12;100766.06;;;2.06;100.00
71716;BME280;59568;52.128;5.434;2023-12-04T11:30:40;100756.22;;;2.03;100.00
71716;BME280;59568;52.128;5.434;2023-12-04T11:33:07;100750.06;;;2.04;100.00
71716;BME280;59568;52.128;5.434;2023-12-04T11:35:38;100748.59;;;2.08;100.00
71716;BME280;59568;52.128;5.434;2023-12-04T11:38:08;100752.03;;;2.13;100.00
71716;BME280;59568;52.128;5.434;2023-12-04T11:40:40;100747.72;;;2.19;100.00
71716;BME280;59568;52.128;5.434;2023-12-04T11:43:23;100746.19;;;2.18;100.00
71716;BME280;59568;52.128;5.434;2023-12-04T11:45:50;100741.03;;;2.18;100.00
71716;BME280;59568;52.128;5.434;2023-12-04T11:48:22;100743.59;;;2.18;100.00
71716;BME280;59568;52.128;5.434;2023-12-04T11:50:50;100750.25;;;2.14;100.00
71716;BME280;59568;52.128;5.434;2023-12-04T11:53:18;100736.78;;;2.12;100.00
71716;BME280;59568;52.128;5.434;2023-12-04T11:55:45;100739.59;;;2.10;100.00
71716;BME280;59568;52.128;5.434;2023-12-04T11:58:12;100736.47;;;2.08;100.00
71716;BME280;59568;52.128;5.434;2023-12-04T12:00:41;100739.28;;;2.07;100.00
71716;BME280;59568;52.128;5.434;2023-12-04T12:03:09;100728.19;;;2.06;100.00
71716;BME280;59568;52.128;5.434;2023-12-04T12:05:49;100726.94;;;2.09;100.00
71716;BME280;59568;52.128;5.434;2023-12-04T12:08:20;100721.00;;;2.08;100.00
71716;BME280;59568;52.128;5.434;2023-12-04T12:10:49;100723.34;;;2.10;100.00
71716;BME280;59568;52.128;5.434;2023-12-04T12:13:17;100723.91;;;2.12;100.00
71716;BME280;59568;52.128;5.434;2023-12-04T12:15:47;100723.34;;;2.10;100.00
71716;BME280;59568;52.128;5.434;2023-12-04T12:18:14;100713.03;;;2.10;100.00
71716;BME280;59568;52.128;5.434;2023-12-04T12:20:42;100704.38;;;2.16;100.00
71716;BME280;59568;52.128;5.434;2023-12-04T12:23:09;100704.47;;;2.21;100.00
71716;BME280;59568;52.128;5.434;2023-12-04T12:25:36;100710.72;;;2.25;100.00
71716;BME280;59568;52.128;5.434;2023-12-04T12:28:04;100702.53;;;2.28;100.00
71716;BME280;59568;52.128;5.434;2023-12-04T12:30:32;100702.53;;;2.28;100.00
71716;BME280;59568;52.128;5.434;2023-12-04T12:32:59;100699.72;;;2.30;100.00
71716;BME280;59568;52.128;5.434;2023-12-04T12:35:26;100692.75;;;2.30;100.00
71716;BME280;59568;52.128;5.434;2023-12-04T12:37:55;100694.56;;;2.30;100.00
71716;BME280;59568;52.128;5.434;2023-12-04T12:40:22;100693.22;;;2.27;100.00
71716;BME280;59568;52.128;5.434;2023-12-04T12:42:49;100685.88;;;2.19;100.00
71716;BME280;59568;52.128;5.434;2023-12-04T12:45:18;100675.47;;;2.14;100.00
71716;BME280;59568;52.128;5.434;2023-12-04T12:47:45;100672.97;;;2.19;100.00
71716;BME280;59568;52.128;5.434;2023-12-04T12:50:13;100673.22;;;2.17;100.00
71716;BME280;59568;52.128;5.434;2023-12-04T12:52:43;100664.69;;;2.17;100.00